Time;durP1;ratioP1;P1;durP2;ratioP2;P2;SDS_P1;SDS_P2;PMS_P1;PMS_P2;Temp;Humidity;BMP_temperature;BMP_pressure;BME280_temperature;BME280_humidity;BME280_pressure;Samples;Min_cycle;Max_cycle;Signal;HPM_P1;HPM_P2
2022/03/12 00:02:17;;;;;;;;;;;;;;;;;;5093419;28;19916;-77
2022/03/12 00:04:45;;;;;;;;;;;;;;;;;;5092016;28;20010;-77
2022/03/12 00:07:11;;;;;;;;;;;;;;;;;;5092691;28;19927;-77
2022/03/12 00:09:37;;;;;;;;;;;;;;;;;;5093323;28;19927;-77
2022/03/12 00:12:03;;;;;;;;;;;;;;;;;;5098310;28;19967;-77
2022/03/12 00:14:30;;;;;;;;;;;;;;;;;;5113843;28;19916;-77
2022/03/12 00:16:57;;;;;;;;;;;;;;;;;;5113647;28;19942;-77
2022/03/12 00:19:23;;;;;;;;;;;;;;;;;;5113458;28;19948;-77
2022/03/12 00:21:50;;;;;;;;;;;;;;;;;;5095307;28;19916;-77
2022/03/12 00:24:16;;;;;;;;;;;;;;;;;;5113242;28;20334;-77
2022/03/12 00:26:43;;;;;;;;;;;;;;;;;;5113463;28;19916;-77
2022/03/12 00:29:13;;;;;;;;;;;;;;;;;;5113669;28;19920;-77
2022/03/12 00:31:39;;;;;;;;;;;;;;;;;;5113639;28;20341;-77
2022/03/12 00:34:05;;;;;;;;;;;;;;;;;;5113487;28;20002;-77
2022/03/12 00:36:30;;;;;;;;;;;;;;;;;;5117123;28;19919;-77
2022/03/12 00:38:55;;;;;;;;;;;;;;;;;;5115850;28;19968;-77
2022/03/12 00:41:21;;;;;;;;;;;;;;;;;;5116789;28;19920;-77
2022/03/12 00:43:46;;;;;;;;;;;;;;;;;;5097370;28;20389;-77
2022/03/12 00:46:12;;;;;;;;;;;;;;;;;;5096635;28;19920;-77
2022/03/12 00:48:39;;;;;;;;;;;;;;;;;;5100471;28;20008;-77
2022/03/12 00:51:05;;;;;;;;;;;;;;;;;;5116917;28;19916;-77
2022/03/12 00:53:30;;;;;;;;;;;;;;;;;;5116640;28;20456;-77
2022/03/12 00:55:55;;;;;;;;;;;;;;;;;;5116699;28;19920;-77
2022/03/12 00:58:21;;;;;;;;;;;;;;;;;;5116971;28;19927;-77
2022/03/12 01:00:46;;;;;;;;;;;;;;;;;;5116750;28;19916;-77
2022/03/12 01:03:12;;;;;;;;;;;;;;;;;;5115491;28;19919;-78
2022/03/12 01:05:50;;;;;;;;;;;;;;;;;;5116605;28;19982;-77
2022/03/12 01:08:16;;;;;;;;;;;;;;;;;;5116054;28;19920;-77
2022/03/12 01:10:42;;;;;;;;;;;;;;;;;;5116498;28;19915;-77
2022/03/12 01:13:08;;;;;;;;;;;;;;;;;;5115691;28;19923;-77
2022/03/12 01:15:34;;;;;;;;;;;;;;;;;;5116399;28;19915;-77
2022/03/12 01:17:59;;;;;;;;;;;;;;;;;;5116527;28;19923;-77
2022/03/12 01:20:25;;;;;;;;;;;;;;;;;;5115112;28;20281;-77
2022/03/12 01:22:50;;;;;;;;;;;;;;;;;;5114891;28;19923;-77
2022/03/12 01:25:16;;;;;;;;;;;;;;;;;;5116164;28;19916;-77
2022/03/12 01:27:41;;;;;;;;;;;;;;;;;;5115971;28;20079;-77
2022/03/12 01:30:07;;;;;;;;;;;;;;;;;;5114681;28;20405;-77
2022/03/12 01:32:33;;;;;;;;;;;;;;;;;;5116020;28;19923;-77
2022/03/12 01:34:58;;;;;;;;;;;;;;;;;;5116281;28;20282;-77
2022/03/12 01:37:23;;;;;;;;;;;;;;;;;;5115745;28;19915;-77
2022/03/12 01:39:49;;;;;;;;;;;;;;;;;;5115873;28;19923;-77
2022/03/12 01:42:15;;;;;;;;;;;;;;;;;;5109077;28;19920;-77
2022/03/12 01:44:40;;;;;;;;;;;;;;;;;;5095435;28;19916;-78
2022/03/12 01:47:07;;;;;;;;;;;;;;;;;;5094709;28;19916;-78
2022/03/12 01:49:32;;;;;;;;;;;;;;;;;;5095123;28;20019;-77
2022/03/12 01:51:58;;;;;;;;;;;;;;;;;;5095151;28;20003;-78
2022/03/12 01:54:24;;;;;;;;;;;;;;;;;;5093685;28;19916;-77
2022/03/12 01:56:51;;;;;;;;;;;;;;;;;;5095147;28;20292;-78
2022/03/12 01:59:17;;;;;;;;;;;;;;;;;;5093695;28;20018;-78
2022/03/12 02:01:43;;;;;;;;;;;;;;;;;;5093746;28;20421;-78
2022/03/12 02:04:12;;;;;;;;;;;;;;;;;;5095077;28;19924;-77
2022/03/12 02:06:43;;;;;;;;;;;;;;;;;;5095024;28;19926;-77
2022/03/12 02:09:14;;;;;;;;;;;;;;;;;;5101958;28;21335;-77
2022/03/12 02:11:39;;;;;;;;;;;;;;;;;;5116442;27;19927;-77
2022/03/12 02:14:09;;;;;;;;;;;;;;;;;;5135821;27;19916;-77
2022/03/12 02:16:35;;;;;;;;;;;;;;;;;;5131509;27;20365;-77
2022/03/12 02:19:02;;;;;;;;;;;;;;;;;;5115375;28;20006;-77
2022/03/12 02:21:30;;;;;;;;;;;;;;;;;;5115429;28;20376;-77
2022/03/12 02:23:55;;;;;;;;;;;;;;;;;;5114727;28;19923;-77
2022/03/12 02:26:20;;;;;;;;;;;;;;;;;;5115026;28;19961;-77
2022/03/12 02:28:46;;;;;;;;;;;;;;;;;;5115030;28;20563;-77
2022/03/12 02:31:13;;;;;;;;;;;;;;;;;;5115347;28;19920;-77
2022/03/12 02:33:38;;;;;;;;;;;;;;;;;;5115071;28;19915;-77
2022/03/12 02:36:05;;;;;;;;;;;;;;;;;;5114958;27;19916;-77
2022/03/12 02:38:31;;;;;;;;;;;;;;;;;;5114635;28;20002;-77
2022/03/12 02:40:56;;;;;;;;;;;;;;;;;;5114786;28;20053;-77
2022/03/12 02:43:26;;;;;;;;;;;;;;;;;;5114402;28;19926;-77
2022/03/12 02:45:57;;;;;;;;;;;;;;;;;;5114627;28;20359;-78
2022/03/12 02:48:25;;;;;;;;;;;;;;;;;;5114841;28;20023;-77
2022/03/12 02:50:51;;;;;;;;;;;;;;;;;;5114801;28;19923;-77
2022/03/12 02:53:16;;;;;;;;;;;;;;;;;;5114120;28;20273;-78
2022/03/12 02:55:43;;;;;;;;;;;;;;;;;;5114666;28;19916;-77
2022/03/12 02:58:12;;;;;;;;;;;;;;;;;;5113580;28;19978;-77
2022/03/12 03:00:37;;;;;;;;;;;;;;;;;;5112920;28;19968;-77
2022/03/12 03:03:04;;;;;;;;;;;;;;;;;;5113262;28;20300;-77
2022/03/12 03:05:41;;;;;;;;;;;;;;;;;;5114061;28;20443;-78
2022/03/12 03:08:09;;;;;;;;;;;;;;;;;;5113540;28;19932;-78
2022/03/12 03:10:35;;;;;;;;;;;;;;;;;;5095966;28;20358;-77
2022/03/12 03:13:21;;;;;;;;;;;;;;;;;;5101938;28;19916;-77
2022/03/12 03:15:57;;;;;;;;;;;;;;;;;;5094218;28;20322;-78
2022/03/12 03:18:23;;;;;;;;;;;;;;;;;;5114197;28;19920;-77
2022/03/12 03:20:53;;;;;;;;;;;;;;;;;;5114324;28;19923;-77
2022/03/12 03:23:21;;;;;;;;;;;;;;;;;;5114049;28;19916;-77
2022/03/12 03:25:47;;;;;;;;;;;;;;;;;;5114054;28;19916;-78
2022/03/12 03:28:13;;;;;;;;;;;;;;;;;;5113996;28;19967;-77
2022/03/12 03:30:39;;;;;;;;;;;;;;;;;;5114135;28;19958;-78
2022/03/12 03:33:09;;;;;;;;;;;;;;;;;;5113843;28;19938;-78
2022/03/12 03:35:34;;;;;;;;;;;;;;;;;;5114128;28;19916;-77
2022/03/12 03:38:00;;;;;;;;;;;;;;;;;;5113309;28;20258;-77
2022/03/12 03:40:25;;;;;;;;;;;;;;;;;;5114046;28;19923;-77
2022/03/12 03:42:51;;;;;;;;;;;;;;;;;;5114120;28;19923;-77
2022/03/12 03:45:21;;;;;;;;;;;;;;;;;;5113808;28;19923;-78
2022/03/12 03:47:47;;;;;;;;;;;;;;;;;;5130048;28;19922;-78
2022/03/12 03:50:12;;;;;;;;;;;;;;;;;;5134600;27;19920;-77
2022/03/12 03:52:37;;;;;;;;;;;;;;;;;;5134232;27;19972;-78
2022/03/12 03:55:03;;;;;;;;;;;;;;;;;;5134410;27;19915;-78
2022/03/12 03:57:28;;;;;;;;;;;;;;;;;;5133740;27;19919;-77
2022/03/12 03:59:54;;;;;;;;;;;;;;;;;;5134777;27;19915;-77
2022/03/12 04:02:19;;;;;;;;;;;;;;;;;;5133077;28;20001;-78
2022/03/12 04:04:48;;;;;;;;;;;;;;;;;;5134732;27;19929;-77
2022/03/12 04:07:14;;;;;;;;;;;;;;;;;;5132954;28;19923;-78
2022/03/12 04:09:39;;;;;;;;;;;;;;;;;;5135369;27;19923;-77
2022/03/12 04:12:05;;;;;;;;;;;;;;;;;;5137000;27;20381;-77
2022/03/12 04:14:30;;;;;;;;;;;;;;;;;;5137095;27;20361;-78
2022/03/12 04:16:58;;;;;;;;;;;;;;;;;;5137917;27;19938;-77
2022/03/12 04:19:25;;;;;;;;;;;;;;;;;;5138554;27;19968;-78
2022/03/12 04:21:52;;;;;;;;;;;;;;;;;;5138245;27;19923;-77
2022/03/12 04:24:17;;;;;;;;;;;;;;;;;;5137633;27;19922;-77
2022/03/12 04:26:43;;;;;;;;;;;;;;;;;;5116740;27;20002;-77
2022/03/12 04:29:09;;;;;;;;;;;;;;;;;;5096799;28;20047;-77
2022/03/12 04:31:35;;;;;;;;;;;;;;;;;;5096978;28;19999;-77
2022/03/12 04:34:00;;;;;;;;;;;;;;;;;;5095764;28;19923;-77
2022/03/12 04:36:26;;;;;;;;;;;;;;;;;;5096262;28;19916;-77
2022/03/12 04:38:51;;;;;;;;;;;;;;;;;;5096563;28;20015;-77
2022/03/12 04:41:17;;;;;;;;;;;;;;;;;;5096769;28;20274;-77
2022/03/12 04:43:43;;;;;;;;;;;;;;;;;;5096555;28;19916;-77
2022/03/12 04:46:08;;;;;;;;;;;;;;;;;;5096419;28;19920;-77
2022/03/12 04:48:34;;;;;;;;;;;;;;;;;;5096403;28;19927;-77
2022/03/12 04:50:59;;;;;;;;;;;;;;;;;;5096635;28;19923;-77
2022/03/12 04:53:25;;;;;;;;;;;;;;;;;;5096175;28;19920;-77
2022/03/12 04:55:50;;;;;;;;;;;;;;;;;;5096475;28;20339;-77
2022/03/12 04:58:16;;;;;;;;;;;;;;;;;;5096994;28;19920;-77
2022/03/12 05:00:41;;;;;;;;;;;;;;;;;;5096268;28;20015;-77
2022/03/12 05:03:20;;;;;;;;;;;;;;;;;;5096189;28;19986;-77
2022/03/12 05:05:48;;;;;;;;;;;;;;;;;;5096386;28;19967;-78
2022/03/12 05:08:14;;;;;;;;;;;;;;;;;;5095721;28;19965;-77
2022/03/12 05:10:39;;;;;;;;;;;;;;;;;;5094708;28;20018;-77
2022/03/12 05:13:05;;;;;;;;;;;;;;;;;;5106109;27;19916;-77
2022/03/12 05:15:36;;;;;;;;;;;;;;;;;;5134743;27;19912;-77
2022/03/12 05:18:06;;;;;;;;;;;;;;;;;;5137142;27;19915;-77
2022/03/12 05:20:32;;;;;;;;;;;;;;;;;;5136814;27;20420;-77
2022/03/12 05:22:57;;;;;;;;;;;;;;;;;;5135966;27;19915;-78
2022/03/12 05:25:23;;;;;;;;;;;;;;;;;;5136542;27;19922;-78
2022/03/12 05:27:51;;;;;;;;;;;;;;;;;;5136976;27;19915;-77
2022/03/12 05:30:16;;;;;;;;;;;;;;;;;;5136484;27;19969;-77
2022/03/12 05:32:43;;;;;;;;;;;;;;;;;;5136973;27;19920;-78
2022/03/12 05:35:10;;;;;;;;;;;;;;;;;;5137003;27;19915;-78
2022/03/12 05:37:38;;;;;;;;;;;;;;;;;;5134915;27;19922;-78
2022/03/12 05:40:07;;;;;;;;;;;;;;;;;;5136359;27;20023;-77
2022/03/12 05:42:34;;;;;;;;;;;;;;;;;;5136474;27;19940;-78
2022/03/12 05:45:00;;;;;;;;;;;;;;;;;;5136708;27;20288;-77
2022/03/12 05:47:25;;;;;;;;;;;;;;;;;;5135398;27;19915;-77
2022/03/12 05:49:50;;;;;;;;;;;;;;;;;;5135195;27;19940;-77
2022/03/12 05:52:18;;;;;;;;;;;;;;;;;;5136118;27;19916;-77
2022/03/12 05:54:45;;;;;;;;;;;;;;;;;;5135984;27;19916;-77
2022/03/12 05:57:11;;;;;;;;;;;;;;;;;;5136164;27;19915;-77
2022/03/12 05:59:36;;;;;;;;;;;;;;;;;;5136097;27;19921;-77
2022/03/12 06:02:01;;;;;;;;;;;;;;;;;;5136157;27;19964;-77
2022/03/12 06:04:27;;;;;;;;;;;;;;;;;;5136173;27;20034;-77
2022/03/12 06:06:55;;;;;;;;;;;;;;;;;;5135777;27;19930;-77
2022/03/12 06:09:22;;;;;;;;;;;;;;;;;;5135373;27;19924;-77
2022/03/12 06:11:50;;;;;;;;;;;;;;;;;;5135890;27;19915;-77
2022/03/12 06:14:16;;;;;;;;;;;;;;;;;;5124553;27;19916;-77
2022/03/12 06:16:48;;;;;;;;;;;;;;;;;;5094637;28;20373;-77
2022/03/12 06:19:16;;;;;;;;;;;;;;;;;;5094935;28;19920;-77
2022/03/12 06:21:42;;;;;;;;;;;;;;;;;;5094741;28;19923;-77
2022/03/12 06:24:07;;;;;;;;;;;;;;;;;;5093501;28;19916;-77
2022/03/12 06:26:35;;;;;;;;;;;;;;;;;;5094876;28;20369;-77
2022/03/12 06:29:01;;;;;;;;;;;;;;;;;;5094729;28;20366;-77
2022/03/12 06:31:27;;;;;;;;;;;;;;;;;;5094862;28;19961;-77
2022/03/12 06:33:53;;;;;;;;;;;;;;;;;;5093068;28;19924;-77
2022/03/12 06:36:21;;;;;;;;;;;;;;;;;;5094542;28;19916;-77
2022/03/12 06:38:47;;;;;;;;;;;;;;;;;;5094180;28;20002;-77
2022/03/12 06:41:12;;;;;;;;;;;;;;;;;;5094741;28;20353;-77
2022/03/12 06:43:40;;;;;;;;;;;;;;;;;;5112497;28;19915;-77
2022/03/12 06:46:05;;;;;;;;;;;;;;;;;;5114624;28;19916;-77
2022/03/12 06:48:31;;;;;;;;;;;;;;;;;;5114594;28;19920;-77
2022/03/12 06:50:57;;;;;;;;;;;;;;;;;;5109648;28;19920;-79
2022/03/12 06:53:22;;;;;;;;;;;;;;;;;;5105390;28;19967;-78
2022/03/12 06:55:48;;;;;;;;;;;;;;;;;;5094330;28;19923;-77
2022/03/12 06:58:13;;;;;;;;;;;;;;;;;;5094716;28;19931;-77
2022/03/12 07:00:39;;;;;;;;;;;;;;;;;;5093916;28;19924;-80
2022/03/12 07:03:04;;;;;;;;;;;;;;;;;;5099423;28;19923;-77
2022/03/12 07:05:30;;;;;;;;;;;;;;;;;;5094323;28;19916;-78
2022/03/12 07:07:55;;;;;;;;;;;;;;;;;;5093116;28;19927;-78
2022/03/12 07:10:21;;;;;;;;;;;;;;;;;;5096666;28;19973;-78
2022/03/12 07:12:46;;;;;;;;;;;;;;;;;;5102339;28;19916;-80
2022/03/12 07:15:13;;;;;;;;;;;;;;;;;;5096483;28;19926;-78
2022/03/12 07:17:38;;;;;;;;;;;;;;;;;;5107091;28;19916;-79
2022/03/12 07:20:04;;;;;;;;;;;;;;;;;;5095037;28;19962;-78
2022/03/12 07:22:30;;;;;;;;;;;;;;;;;;5094883;28;19967;-78
2022/03/12 07:24:56;;;;;;;;;;;;;;;;;;5096514;28;19966;-78
2022/03/12 07:27:21;;;;;;;;;;;;;;;;;;5097672;28;19920;-79
2022/03/12 07:29:46;;;;;;;;;;;;;;;;;;5096915;28;20018;-77
2022/03/12 07:32:12;;;;;;;;;;;;;;;;;;5097100;28;19916;-78
2022/03/12 07:34:38;;;;;;;;;;;;;;;;;;5096999;28;19916;-78
2022/03/12 07:37:03;;;;;;;;;;;;;;;;;;5112821;28;20353;-79
2022/03/12 07:39:29;;;;;;;;;;;;;;;;;;5118922;28;19916;-78
2022/03/12 07:41:54;;;;;;;;;;;;;;;;;;5115344;28;20006;-79
2022/03/12 07:44:19;;;;;;;;;;;;;;;;;;5138915;27;19926;-78
2022/03/12 07:46:45;;;;;;;;;;;;;;;;;;5141193;27;19915;-81
2022/03/12 07:49:13;;;;;;;;;;;;;;;;;;5111458;27;19920;-81
2022/03/12 07:51:43;;;;;;;;;;;;;;;;;;5101706;28;20004;-79
2022/03/12 07:54:08;;;;;;;;;;;;;;;;;;5102241;28;19938;-78
2022/03/12 07:56:34;;;;;;;;;;;;;;;;;;5098674;28;19924;-76
2022/03/12 07:59:00;;;;;;;;;;;;;;;;;;5098080;28;19916;-76
2022/03/12 08:01:25;;;;;;;;;;;;;;;;;;5099274;28;20371;-76
2022/03/12 08:03:54;;;;;;;;;;;;;;;;;;5097021;28;20426;-76
2022/03/12 08:06:20;;;;;;;;;;;;;;;;;;5096732;28;19920;-76
2022/03/12 08:08:46;;;;;;;;;;;;;;;;;;5109709;28;20440;-76
2022/03/12 08:11:28;;;;;;;;;;;;;;;;;;5117918;28;19951;-76
2022/03/12 08:14:06;;;;;;;;;;;;;;;;;;5104531;27;20393;-76
2022/03/12 08:16:35;;;;;;;;;;;;;;;;;;5116370;28;19972;-76
2022/03/12 08:19:01;;;;;;;;;;;;;;;;;;5117465;28;19922;-76
2022/03/12 08:21:27;;;;;;;;;;;;;;;;;;5116407;28;20338;-77
2022/03/12 08:23:52;;;;;;;;;;;;;;;;;;5108086;28;19920;-76
2022/03/12 08:26:18;;;;;;;;;;;;;;;;;;5097307;28;20340;-76
2022/03/12 08:28:44;;;;;;;;;;;;;;;;;;5096775;28;19926;-76
2022/03/12 08:31:09;;;;;;;;;;;;;;;;;;5097070;28;19912;-76
2022/03/12 08:33:38;;;;;;;;;;;;;;;;;;5096093;28;19923;-76
2022/03/12 08:36:07;;;;;;;;;;;;;;;;;;5095859;28;20297;-76
2022/03/12 08:38:34;;;;;;;;;;;;;;;;;;5103169;27;19919;-76
2022/03/12 08:40:59;;;;;;;;;;;;;;;;;;5136549;27;20369;-77
2022/03/12 08:43:25;;;;;;;;;;;;;;;;;;5136181;27;20100;-77
2022/03/12 08:45:50;;;;;;;;;;;;;;;;;;5126399;27;20064;-77
2022/03/12 08:48:16;;;;;;;;;;;;;;;;;;5110872;28;19939;-76
2022/03/12 08:50:43;;;;;;;;;;;;;;;;;;5099482;28;20006;-77
2022/03/12 08:53:09;;;;;;;;;;;;;;;;;;5103977;28;19969;-77
2022/03/12 08:55:34;;;;;;;;;;;;;;;;;;5115132;28;19915;-78
2022/03/12 08:58:00;;;;;;;;;;;;;;;;;;5105552;28;19916;-76
2022/03/12 09:00:25;;;;;;;;;;;;;;;;;;5101732;28;19923;-80
2022/03/12 09:02:51;;;;;;;;;;;;;;;;;;5104980;28;19971;-78
2022/03/12 09:05:16;;;;;;;;;;;;;;;;;;5107442;28;19993;-78
2022/03/12 09:07:43;;;;;;;;;;;;;;;;;;5121771;28;19924;-79
2022/03/12 09:10:10;;;;;;;;;;;;;;;;;;5121100;28;19920;-78
2022/03/12 09:12:36;;;;;;;;;;;;;;;;;;5111920;28;19922;-78
2022/03/12 09:15:01;;;;;;;;;;;;;;;;;;5101972;28;19947;-77
2022/03/12 09:17:26;;;;;;;;;;;;;;;;;;5118317;28;19915;-77
2022/03/12 09:19:54;;;;;;;;;;;;;;;;;;5124725;28;19916;-78
2022/03/12 09:22:19;;;;;;;;;;;;;;;;;;5125738;27;20355;-78
2022/03/12 09:24:44;;;;;;;;;;;;;;;;;;5118931;28;19951;-77
2022/03/12 09:27:10;;;;;;;;;;;;;;;;;;5118370;28;19915;-77
2022/03/12 09:29:38;;;;;;;;;;;;;;;;;;5116559;28;20003;-77
2022/03/12 09:32:08;;;;;;;;;;;;;;;;;;5116067;28;19916;-77
2022/03/12 09:34:34;;;;;;;;;;;;;;;;;;5114587;28;19985;-77
2022/03/12 09:37:00;;;;;;;;;;;;;;;;;;5114800;28;20395;-77
2022/03/12 09:39:26;;;;;;;;;;;;;;;;;;5115820;28;19976;-78
2022/03/12 09:41:52;;;;;;;;;;;;;;;;;;5115859;27;19955;-77
2022/03/12 09:44:17;;;;;;;;;;;;;;;;;;5115965;28;20012;-77
2022/03/12 09:46:43;;;;;;;;;;;;;;;;;;5114404;28;19970;-77
2022/03/12 09:49:11;;;;;;;;;;;;;;;;;;5115076;27;19920;-77
2022/03/12 09:51:36;;;;;;;;;;;;;;;;;;5097735;28;20444;-77
2022/03/12 09:54:01;;;;;;;;;;;;;;;;;;5115271;28;19967;-77
2022/03/12 09:56:27;;;;;;;;;;;;;;;;;;5115023;28;19922;-77
2022/03/12 09:58:52;;;;;;;;;;;;;;;;;;5115826;28;19931;-77
2022/03/12 10:01:17;;;;;;;;;;;;;;;;;;5097341;28;19961;-77
2022/03/12 10:03:43;;;;;;;;;;;;;;;;;;5104046;28;19969;-77
2022/03/12 10:06:10;;;;;;;;;;;;;;;;;;5108261;28;20045;-78
2022/03/12 10:08:35;;;;;;;;;;;;;;;;;;5109884;28;20292;-78
2022/03/12 10:11:00;;;;;;;;;;;;;;;;;;5104545;28;19916;-77
2022/03/12 10:13:26;;;;;;;;;;;;;;;;;;5107325;28;19923;-77
2022/03/12 10:15:51;;;;;;;;;;;;;;;;;;5114007;28;19916;-77
2022/03/12 10:18:17;;;;;;;;;;;;;;;;;;5095355;28;20374;-76
2022/03/12 10:20:44;;;;;;;;;;;;;;;;;;5097641;28;19916;-77
2022/03/12 10:23:10;;;;;;;;;;;;;;;;;;5115362;28;20456;-77
2022/03/12 10:25:36;;;;;;;;;;;;;;;;;;5116438;27;20346;-78
2022/03/12 10:28:02;;;;;;;;;;;;;;;;;;5111528;28;19923;-77
2022/03/12 10:30:27;;;;;;;;;;;;;;;;;;5097681;28;20344;-77
2022/03/12 10:32:52;;;;;;;;;;;;;;;;;;5097573;28;19924;-78
2022/03/12 10:35:19;;;;;;;;;;;;;;;;;;5095718;28;19916;-78
2022/03/12 10:37:44;;;;;;;;;;;;;;;;;;5094520;28;19923;-78
2022/03/12 10:40:11;;;;;;;;;;;;;;;;;;5093586;28;19917;-77
2022/03/12 10:42:48;;;;;;;;;;;;;;;;;;5103330;28;19912;-79
2022/03/12 10:45:17;;;;;;;;;;;;;;;;;;5115421;28;19915;-76
2022/03/12 10:47:46;;;;;;;;;;;;;;;;;;5114966;28;19915;-76
2022/03/12 10:50:19;;;;;;;;;;;;;;;;;;5113296;28;20006;-76
2022/03/12 10:52:49;;;;;;;;;;;;;;;;;;5114222;28;19922;-76
2022/03/12 10:55:36;;;;;;;;;;;;;;;;;;5114286;28;19916;-76
2022/03/12 10:58:02;;;;;;;;;;;;;;;;;;5114500;27;19922;-77
2022/03/12 11:00:28;;;;;;;;;;;;;;;;;;5114578;28;20357;-77
2022/03/12 11:02:57;;;;;;;;;;;;;;;;;;5105283;28;20005;-76
2022/03/12 11:05:27;;;;;;;;;;;;;;;;;;5102650;28;19924;-76
2022/03/12 11:08:04;;;;;;;;;;;;;;;;;;5103689;28;20511;-76
2022/03/12 11:10:33;;;;;;;;;;;;;;;;;;5104205;28;19966;-76
2022/03/12 11:12:59;;;;;;;;;;;;;;;;;;5101816;28;20284;-76
2022/03/12 11:15:26;;;;;;;;;;;;;;;;;;5104024;28;19923;-76
2022/03/12 11:17:51;;;;;;;;;;;;;;;;;;5108461;28;19916;-76
2022/03/12 11:20:22;;;;;;;;;;;;;;;;;;5113404;28;20358;-77
2022/03/12 11:23:12;;;;;;;;;;;;;;;;;;5114366;28;19919;-77
2022/03/12 11:25:50;;;;;;;;;;;;;;;;;;5105511;28;19916;-76
2022/03/12 11:28:18;;;;;;;;;;;;;;;;;;5114352;28;19916;-76
2022/03/12 11:30:43;;;;;;;;;;;;;;;;;;5113928;28;19916;-77
2022/03/12 11:33:09;;;;;;;;;;;;;;;;;;5114139;28;19916;-76
2022/03/12 11:35:39;;;;;;;;;;;;;;;;;;5114383;28;19960;-77
2022/03/12 11:38:21;;;;;;;;;;;;;;;;;;5113026;28;19966;-77
2022/03/12 11:40:47;;;;;;;;;;;;;;;;;;5114051;28;20349;-77
2022/03/12 11:43:23;;;;;;;;;;;;;;;;;;5114369;28;20389;-76
2022/03/12 11:45:49;;;;;;;;;;;;;;;;;;5113843;28;20285;-76
2022/03/12 11:48:14;;;;;;;;;;;;;;;;;;5114972;28;19916;-76
2022/03/12 11:50:40;;;;;;;;;;;;;;;;;;5113351;28;19923;-76
2022/03/12 11:53:06;;;;;;;;;;;;;;;;;;5114619;28;20277;-76
2022/03/12 11:55:32;;;;;;;;;;;;;;;;;;5113069;28;20273;-76
2022/03/12 11:57:59;;;;;;;;;;;;;;;;;;5114943;28;19922;-76
2022/03/12 12:00:25;;;;;;;;;;;;;;;;;;5115099;28;19922;-76
2022/03/12 12:02:52;;;;;;;;;;;;;;;;;;5114795;28;19968;-75
2022/03/12 12:05:19;;;;;;;;;;;;;;;;;;5114000;28;19916;-76
2022/03/12 12:07:45;;;;;;;;;;;;;;;;;;5113865;28;19919;-76
2022/03/12 12:10:12;;;;;;;;;;;;;;;;;;5114019;28;19978;-76
2022/03/12 12:12:37;;;;;;;;;;;;;;;;;;5114073;28;20343;-76
2022/03/12 12:15:04;;;;;;;;;;;;;;;;;;5112785;28;19915;-76
2022/03/12 12:17:33;;;;;;;;;;;;;;;;;;5113829;28;19964;-77
2022/03/12 12:19:59;;;;;;;;;;;;;;;;;;5112718;28;19941;-76
2022/03/12 12:22:25;;;;;;;;;;;;;;;;;;5113232;28;19923;-76
2022/03/12 12:24:52;;;;;;;;;;;;;;;;;;5113824;28;19915;-76
2022/03/12 12:27:19;;;;;;;;;;;;;;;;;;5112933;28;20323;-76
2022/03/12 12:29:48;;;;;;;;;;;;;;;;;;5102047;28;20385;-76
2022/03/12 12:32:15;;;;;;;;;;;;;;;;;;5098309;28;20285;-75
2022/03/12 12:34:58;;;;;;;;;;;;;;;;;;5102308;28;20343;-76
2022/03/12 12:37:45;;;;;;;;;;;;;;;;;;5097492;28;19916;-76
2022/03/12 12:40:31;;;;;;;;;;;;;;;;;;5095424;28;19916;-76
2022/03/12 12:42:59;;;;;;;;;;;;;;;;;;5096953;28;20309;-75
2022/03/12 12:45:26;;;;;;;;;;;;;;;;;;5096525;28;19977;-75
2022/03/12 12:48:05;;;;;;;;;;;;;;;;;;5096625;28;20278;-75
2022/03/12 12:50:30;;;;;;;;;;;;;;;;;;5115545;28;19924;-75
2022/03/12 12:53:09;;;;;;;;;;;;;;;;;;5116412;28;20502;-76
2022/03/12 16:31:44;;;;;;;;;;;;;;;;;;5093589;28;20002;-76
2022/03/12 16:34:11;;;;;;;;;;;;;;;;;;5096733;28;19920;-76
2022/03/12 16:36:40;;;;;;;;;;;;;;;;;;5104034;28;19990;-77
2022/03/12 16:39:06;;;;;;;;;;;;;;;;;;5103694;28;19915;-77
2022/03/12 16:41:37;;;;;;;;;;;;;;;;;;5116234;28;19920;-76
2022/03/12 16:44:03;;;;;;;;;;;;;;;;;;5109155;28;19916;-80
2022/03/12 16:46:29;;;;;;;;;;;;;;;;;;5109770;28;19916;-78
2022/03/12 16:48:55;;;;;;;;;;;;;;;;;;5113281;28;19965;-79
2022/03/12 16:51:20;;;;;;;;;;;;;;;;;;5120142;28;19930;-78
2022/03/12 16:53:46;;;;;;;;;;;;;;;;;;5101368;28;20297;-77
2022/03/12 16:56:11;;;;;;;;;;;;;;;;;;5097014;28;20457;-76
2022/03/12 16:58:37;;;;;;;;;;;;;;;;;;5100321;28;20011;-76
2022/03/12 17:01:03;;;;;;;;;;;;;;;;;;5097995;28;20006;-78
2022/03/12 17:03:30;;;;;;;;;;;;;;;;;;5098095;28;19916;-77
2022/03/12 17:05:56;;;;;;;;;;;;;;;;;;5097144;28;19916;-77
2022/03/12 17:08:22;;;;;;;;;;;;;;;;;;5099306;28;19949;-78
2022/03/12 17:10:50;;;;;;;;;;;;;;;;;;5096630;28;19916;-76
2022/03/12 17:13:17;;;;;;;;;;;;;;;;;;5108419;28;19916;-76
2022/03/12 17:15:44;;;;;;;;;;;;;;;;;;5116332;28;20014;-77
2022/03/12 17:18:10;;;;;;;;;;;;;;;;;;5116880;27;19923;-76
2022/03/12 17:20:36;;;;;;;;;;;;;;;;;;5115512;28;19915;-76
2022/03/12 17:23:02;;;;;;;;;;;;;;;;;;5116819;28;19923;-77
2022/03/12 17:25:27;;;;;;;;;;;;;;;;;;5120347;28;20281;-78
2022/03/12 17:27:57;;;;;;;;;;;;;;;;;;5101864;28;19926;-78
2022/03/12 17:30:23;;;;;;;;;;;;;;;;;;5102978;28;19931;-77
2022/03/12 17:32:49;;;;;;;;;;;;;;;;;;5125989;28;19941;-78
2022/03/12 17:35:15;;;;;;;;;;;;;;;;;;5124889;28;19916;-78
2022/03/12 17:37:40;;;;;;;;;;;;;;;;;;5123115;28;19916;-78
2022/03/12 17:40:06;;;;;;;;;;;;;;;;;;5124856;28;20122;-78
2022/03/12 17:42:44;;;;;;;;;;;;;;;;;;5122674;28;21284;-78
2022/03/12 17:45:10;;;;;;;;;;;;;;;;;;5128488;28;19923;-78
2022/03/12 17:47:42;;;;;;;;;;;;;;;;;;5127153;28;19916;-78
2022/03/12 17:50:16;;;;;;;;;;;;;;;;;;5126993;28;19916;-78
2022/03/12 17:52:42;;;;;;;;;;;;;;;;;;5129035;28;19926;-78
2022/03/12 17:55:11;;;;;;;;;;;;;;;;;;5131056;28;19911;-78
2022/03/12 18:00:43;;;;;;;;;;;;;;;;;;5118931;28;19980;-80
2022/03/12 18:03:09;;;;;;;;;;;;;;;;;;5124744;28;19916;-79
2022/03/12 18:05:35;;;;;;;;;;;;;;;;;;5124353;28;19916;-78
2022/03/12 18:08:02;;;;;;;;;;;;;;;;;;5126935;28;19961;-80
2022/03/12 18:10:29;;;;;;;;;;;;;;;;;;5121602;27;19916;-78
2022/03/12 18:12:55;;;;;;;;;;;;;;;;;;5112826;28;19916;-78
2022/03/12 18:15:20;;;;;;;;;;;;;;;;;;5100683;28;19959;-78
2022/03/12 18:17:46;;;;;;;;;;;;;;;;;;5100942;28;19916;-77
2022/03/12 18:20:12;;;;;;;;;;;;;;;;;;5102016;28;19951;-79
2022/03/12 18:22:38;;;;;;;;;;;;;;;;;;5102419;28;20455;-79
2022/03/12 18:25:05;;;;;;;;;;;;;;;;;;5101076;28;19920;-78
2022/03/12 18:27:31;;;;;;;;;;;;;;;;;;5097404;28;20452;-78
2022/03/12 18:29:56;;;;;;;;;;;;;;;;;;5097701;28;19959;-78
2022/03/12 18:32:25;;;;;;;;;;;;;;;;;;5095359;28;20374;-77
2022/03/12 18:34:53;;;;;;;;;;;;;;;;;;5097210;28;19985;-78
2022/03/12 18:37:19;;;;;;;;;;;;;;;;;;5096965;28;19916;-77
2022/03/12 18:39:46;;;;;;;;;;;;;;;;;;5096426;28;20325;-78
2022/03/12 18:42:12;;;;;;;;;;;;;;;;;;5102001;28;19916;-78
2022/03/12 18:44:39;;;;;;;;;;;;;;;;;;5117015;28;19960;-77
2022/03/12 18:47:04;;;;;;;;;;;;;;;;;;5119871;28;19984;-79
2022/03/12 18:49:31;;;;;;;;;;;;;;;;;;5129636;28;20373;-79
2022/03/12 18:51:57;;;;;;;;;;;;;;;;;;5124458;28;19916;-78
2022/03/12 18:54:23;;;;;;;;;;;;;;;;;;5117127;27;20385;-78
2022/03/12 18:56:48;;;;;;;;;;;;;;;;;;5121855;28;19916;-78
2022/03/12 18:59:15;;;;;;;;;;;;;;;;;;5122663;28;19922;-78
2022/03/12 19:01:40;;;;;;;;;;;;;;;;;;5112917;28;19916;-77
2022/03/12 19:04:05;;;;;;;;;;;;;;;;;;5098703;28;20239;-79
2022/03/12 19:06:35;;;;;;;;;;;;;;;;;;5082630;28;19916;-79
2022/03/12 19:09:02;;;;;;;;;;;;;;;;;;5099390;28;19923;-78
2022/03/12 19:11:27;;;;;;;;;;;;;;;;;;5106081;28;19938;-77
2022/03/12 19:13:55;;;;;;;;;;;;;;;;;;5112009;28;19924;-77
2022/03/12 19:16:20;;;;;;;;;;;;;;;;;;5099404;28;19969;-77
2022/03/12 19:18:47;;;;;;;;;;;;;;;;;;5117636;27;20369;-76
2022/03/12 19:21:13;;;;;;;;;;;;;;;;;;5116735;28;19954;-77
2022/03/12 19:23:39;;;;;;;;;;;;;;;;;;5117365;28;19916;-76
2022/03/12 19:26:05;;;;;;;;;;;;;;;;;;5116807;28;19916;-77
2022/03/12 19:28:34;;;;;;;;;;;;;;;;;;5111183;28;20384;-76
2022/03/12 19:31:01;;;;;;;;;;;;;;;;;;5108635;28;19991;-77
2022/03/12 19:33:27;;;;;;;;;;;;;;;;;;5079496;28;19916;-76
2022/03/12 19:35:52;;;;;;;;;;;;;;;;;;5097711;28;19980;-76
2022/03/12 19:38:17;;;;;;;;;;;;;;;;;;5098313;28;19915;-77
2022/03/12 19:40:44;;;;;;;;;;;;;;;;;;5098806;28;19927;-76
2022/03/12 19:43:10;;;;;;;;;;;;;;;;;;5101181;28;19939;-77
2022/03/12 19:45:36;;;;;;;;;;;;;;;;;;5117102;28;19916;-77
2022/03/12 19:48:03;;;;;;;;;;;;;;;;;;5122450;27;19923;-77
2022/03/12 19:50:28;;;;;;;;;;;;;;;;;;5120808;28;19920;-77
2022/03/12 19:52:54;;;;;;;;;;;;;;;;;;5111377;28;20269;-76
2022/03/12 19:55:19;;;;;;;;;;;;;;;;;;5080818;28;19938;-77
2022/03/12 19:57:46;;;;;;;;;;;;;;;;;;5098953;28;19916;-77
2022/03/12 20:00:12;;;;;;;;;;;;;;;;;;5097711;28;19912;-77
2022/03/12 20:02:43;;;;;;;;;;;;;;;;;;5097945;28;19920;-77
2022/03/12 20:05:08;;;;;;;;;;;;;;;;;;5098228;28;19916;-77
2022/03/12 20:07:34;;;;;;;;;;;;;;;;;;5081190;28;20277;-77
2022/03/12 20:10:00;;;;;;;;;;;;;;;;;;5098014;28;20057;-77
2022/03/12 20:12:26;;;;;;;;;;;;;;;;;;5099843;28;19951;-77
2022/03/12 20:14:52;;;;;;;;;;;;;;;;;;5090784;28;20368;-77
2022/03/12 20:17:18;;;;;;;;;;;;;;;;;;5097778;28;20012;-77
2022/03/12 20:19:43;;;;;;;;;;;;;;;;;;5081495;28;19919;-77
2022/03/12 20:22:09;;;;;;;;;;;;;;;;;;5098288;28;19923;-77
2022/03/12 20:24:35;;;;;;;;;;;;;;;;;;5098445;28;19923;-77